createdAt,value
2023-05-20T00:00:32.748Z,0.00
2023-05-20T00:05:33.549Z,0.00
2023-05-20T00:10:21.828Z,0.00
2023-05-20T00:15:28.208Z,0.00
2023-05-20T00:20:18.224Z,0.00
2023-05-20T00:25:23.422Z,0.00
2023-05-20T00:30:29.882Z,0.00
2023-05-20T00:35:18.558Z,0.00
2023-05-20T00:40:26.131Z,0.00
2023-05-20T00:45:31.076Z,0.00
2023-05-20T00:50:19.839Z,0.00
2023-05-20T00:55:25.766Z,0.00
2023-05-20T01:00:33.052Z,0.00
2023-05-20T01:05:20.136Z,0.00
2023-05-20T01:10:26.257Z,0.00
2023-05-20T01:15:33.397Z,0.00
2023-05-20T01:20:21.078Z,0.00
2023-05-20T01:25:26.948Z,0.00
2023-05-20T01:30:25.503Z,0.00
2023-05-20T01:35:22.528Z,0.00
2023-05-20T01:40:28.184Z,0.00
2023-05-20T01:45:17.405Z,0.00
2023-05-20T01:50:23.695Z,0.00
2023-05-20T01:55:29.312Z,0.00
2023-05-20T02:00:21.725Z,0.00
2023-05-20T02:05:24.154Z,0.00
2023-05-20T02:10:29.813Z,0.00
2023-05-20T02:15:18.783Z,0.00
2023-05-20T02:20:25.819Z,0.00
2023-05-20T02:25:31.500Z,0.00
2023-05-20T02:30:20.867Z,0.00
2023-05-20T02:35:26.529Z,0.00
2023-05-20T02:40:32.616Z,0.00
2023-05-20T02:45:22.051Z,0.00
2023-05-20T02:50:27.695Z,0.00
2023-05-20T02:55:34.053Z,0.00
2023-05-20T03:00:23.048Z,0.00
2023-05-20T03:05:28.270Z,0.00
2023-05-20T03:10:17.201Z,0.00
2023-05-20T03:15:23.760Z,0.06
2023-05-20T03:20:28.793Z,0.82
2023-05-20T03:25:18.355Z,2.21
2023-05-20T03:30:24.616Z,4.66
2023-05-20T03:35:32.023Z,7.91
2023-05-20T03:40:20.703Z,11.63
2023-05-20T03:45:25.123Z,15.69
2023-05-20T03:50:31.074Z,19.70
2023-05-20T03:55:20.614Z,23.93
2023-05-20T04:00:31.225Z,27.90
2023-05-20T04:05:32.135Z,30.54
2023-05-20T04:10:21.069Z,30.50
2023-05-20T04:15:27.221Z,32.54
2023-05-20T04:20:32.988Z,38.05
2023-05-20T04:25:21.582Z,45.53
2023-05-20T04:30:27.692Z,48.56
2023-05-20T04:35:17.211Z,48.83
2023-05-20T04:40:22.826Z,53.59
2023-05-20T04:45:29.428Z,59.91
2023-05-20T04:50:18.408Z,69.29
2023-05-20T04:55:23.924Z,82.28
2023-05-20T05:00:31.401Z,93.39
2023-05-20T05:05:19.875Z,102.32
2023-05-20T05:10:25.502Z,117.77
2023-05-20T05:15:31.677Z,127.97
2023-05-20T05:20:20.157Z,155.70
2023-05-20T05:25:26.166Z,160.67
2023-05-20T05:30:18.238Z,168.86
2023-05-20T05:35:21.655Z,178.21
2023-05-20T05:40:27.269Z,224.49
2023-05-20T05:45:34.016Z,233.08
2023-05-20T05:50:22.762Z,203.98
2023-05-20T05:55:28.392Z,235.02
2023-05-20T06:00:20.631Z,276.69
2023-05-20T06:05:23.234Z,271.46
2023-05-20T06:10:28.895Z,280.96
2023-05-20T06:15:18.325Z,320.93
2023-05-20T06:20:25.502Z,334.95
2023-05-20T06:25:30.410Z,344.26
2023-05-20T06:30:19.397Z,356.38
2023-05-20T06:35:25.503Z,325.75
2023-05-20T06:40:32.778Z,322.42
2023-05-20T06:45:21.114Z,378.79
2023-05-20T06:50:26.661Z,392.36
2023-05-20T06:55:32.961Z,411.84
2023-05-20T07:00:22.377Z,434.31
2023-05-20T07:05:27.144Z,503.71
2023-05-20T07:10:33.839Z,555.00
2023-05-20T07:15:22.210Z,448.94
2023-05-20T07:20:27.781Z,534.78
2023-05-20T07:25:17.217Z,429.82
2023-05-20T07:30:22.805Z,385.58
2023-05-20T07:35:29.310Z,603.83
2023-05-20T07:40:18.211Z,765.26
2023-05-20T07:45:24.033Z,732.63
2023-05-20T07:50:30.570Z,663.17
2023-05-20T07:55:19.203Z,389.39
2023-05-20T08:00:28.692Z,264.41
2023-05-20T08:05:30.980Z,311.15
2023-05-20T08:10:19.710Z,764.41
2023-05-20T08:15:25.686Z,830.96
2023-05-20T08:20:32.736Z,777.85
2023-05-20T08:25:21.288Z,748.00
2023-05-20T08:30:27.767Z,776.24
2023-05-20T08:35:33.607Z,730.20
2023-05-20T08:40:22.474Z,690.24
2023-05-20T08:45:28.935Z,505.13
2023-05-20T08:50:17.579Z,734.35
2023-05-20T08:55:24.053Z,865.43
2023-05-20T09:00:30.380Z,778.78
2023-05-20T09:05:18.072Z,902.26
2023-05-20T09:10:24.673Z,456.66
2023-05-20T09:15:30.136Z,507.99
2023-05-20T09:20:20.274Z,709.70
2023-05-20T09:25:25.680Z,563.34
2023-05-20T09:30:30.819Z,768.51
2023-05-20T09:35:20.412Z,724.91
2023-05-20T09:40:27.677Z,563.27
2023-05-20T09:45:32.523Z,683.97
2023-05-20T09:50:21.470Z,691.23
2023-05-20T09:55:27.136Z,744.13
2023-05-20T10:00:36.593Z,521.90
2023-05-20T10:05:21.577Z,560.74
2023-05-20T10:10:27.696Z,471.88
2023-05-20T10:15:16.582Z,574.54
2023-05-20T10:20:23.308Z,704.37
2023-05-20T10:25:29.708Z,824.50
2023-05-20T10:30:18.229Z,808.08
2023-05-20T10:35:24.348Z,842.07
2023-05-20T10:40:30.851Z,835.94
2023-05-20T10:45:19.374Z,713.18
2023-05-20T10:50:25.570Z,803.51
2023-05-20T10:55:32.003Z,775.79
2023-05-20T11:00:22.470Z,525.95
2023-05-20T11:05:27.328Z,727.04
2023-05-20T11:10:32.610Z,724.02
2023-05-20T11:15:20.988Z,702.53
2023-05-20T11:20:27.481Z,661.48
2023-05-20T11:25:33.280Z,659.09
2023-05-20T11:30:21.641Z,645.50
2023-05-20T11:35:28.183Z,696.45
2023-05-20T11:40:18.558Z,644.30
2023-05-20T11:45:22.824Z,433.71
2023-05-20T11:50:29.333Z,650.49
2023-05-20T11:55:17.932Z,594.00
2023-05-20T12:00:29.261Z,602.09
2023-05-20T12:05:30.562Z,539.73
2023-05-20T12:10:19.561Z,498.91
2023-05-20T12:15:25.453Z,513.17
2023-05-20T12:20:31.046Z,549.23
2023-05-20T12:25:20.024Z,499.74
2023-05-20T12:30:26.480Z,626.07
2023-05-20T12:35:32.193Z,517.17
2023-05-20T12:40:21.257Z,518.69
2023-05-20T12:45:27.347Z,689.47
2023-05-20T12:50:34.009Z,788.70
2023-05-20T12:55:22.385Z,612.57
2023-05-20T13:00:30.162Z,714.41
2023-05-20T13:05:16.875Z,825.22
2023-05-20T13:10:22.847Z,633.53
2023-05-20T13:15:29.365Z,672.55
2023-05-20T13:20:19.870Z,480.45
2023-05-20T13:25:24.514Z,509.02
2023-05-20T13:30:31.343Z,400.00
2023-05-20T13:35:20.580Z,665.83
2023-05-20T13:40:26.347Z,471.23
2023-05-20T13:45:31.759Z,540.71
2023-05-20T13:50:20.856Z,525.50
2023-05-20T13:55:26.954Z,540.21
2023-05-20T14:00:37.135Z,342.02
2023-05-20T14:05:21.794Z,276.52
2023-05-20T14:10:27.288Z,447.52
2023-05-20T14:15:33.814Z,316.26
2023-05-20T14:20:22.008Z,317.88
2023-05-20T14:25:28.476Z,416.76
2023-05-20T14:30:17.040Z,363.66
2023-05-20T14:35:23.252Z,229.68
2023-05-20T14:40:29.607Z,221.03
2023-05-20T14:45:18.238Z,247.14
2023-05-20T14:50:24.852Z,283.06
2023-05-20T14:55:30.371Z,268.53
2023-05-20T15:00:21.284Z,248.72
2023-05-20T15:05:24.829Z,235.95
2023-05-20T15:10:31.244Z,228.27
2023-05-20T15:15:19.870Z,229.05
2023-05-20T15:20:25.637Z,223.74
2023-05-20T15:25:32.019Z,212.88
2023-05-20T15:30:20.591Z,200.26
2023-05-20T15:35:27.065Z,188.64
2023-05-20T15:40:34.318Z,181.58
2023-05-20T15:45:22.218Z,185.29
2023-05-20T15:50:27.938Z,251.27
2023-05-20T15:55:17.855Z,291.72
2023-05-20T16:00:28.416Z,310.78
2023-05-20T16:05:29.543Z,310.45
2023-05-20T16:10:19.037Z,213.56
2023-05-20T16:15:24.544Z,164.94
2023-05-20T16:20:30.172Z,159.81
2023-05-20T16:25:19.147Z,145.71
2023-05-20T16:30:25.203Z,129.46
2023-05-20T16:35:31.787Z,138.57
2023-05-20T16:40:20.678Z,117.79
2023-05-20T16:45:27.246Z,98.74
2023-05-20T16:50:32.935Z,99.29
2023-05-20T16:55:21.919Z,101.70
2023-05-20T17:00:28.797Z,90.21
2023-05-20T17:05:33.812Z,80.81
2023-05-20T17:10:22.001Z,72.37
2023-05-20T17:15:28.381Z,68.20
2023-05-20T17:20:17.740Z,80.80
2023-05-20T17:25:22.680Z,77.63
2023-05-20T17:30:28.730Z,73.68
2023-05-20T17:35:17.796Z,70.86
2023-05-20T17:40:24.977Z,62.38
2023-05-20T17:45:30.045Z,56.79
2023-05-20T17:50:19.375Z,51.07
2023-05-20T17:55:25.458Z,46.45
2023-05-20T18:00:35.718Z,40.91
2023-05-20T18:05:20.510Z,36.03
2023-05-20T18:10:26.499Z,31.82
2023-05-20T18:15:33.413Z,27.76
2023-05-20T18:20:21.066Z,23.96
2023-05-20T18:25:27.534Z,19.23
2023-05-20T18:30:33.942Z,13.86
2023-05-20T18:35:22.711Z,7.01
2023-05-20T18:40:28.328Z,2.23
2023-05-20T18:45:17.292Z,0.13
2023-05-20T18:50:23.877Z,0.00
2023-05-20T18:55:29.808Z,0.07
2023-05-20T19:00:20.046Z,0.00
2023-05-20T19:05:24.423Z,0.00
2023-05-20T19:10:30.110Z,0.00
2023-05-20T19:15:19.050Z,0.00
2023-05-20T19:20:25.886Z,0.00
2023-05-20T19:25:31.477Z,0.00
2023-05-20T19:30:20.989Z,0.00
2023-05-20T19:35:26.659Z,0.00
2023-05-20T19:40:33.409Z,0.00
2023-05-20T19:45:21.707Z,0.00
2023-05-20T19:50:27.789Z,0.00
2023-05-20T19:55:35.560Z,0.00
2023-05-20T20:00:24.766Z,0.00
2023-05-20T20:05:28.856Z,0.00
2023-05-20T20:10:17.427Z,0.00
2023-05-20T20:15:24.116Z,0.00
2023-05-20T20:20:29.464Z,0.00
2023-05-20T20:25:17.956Z,0.00
2023-05-20T20:30:24.601Z,0.00
2023-05-20T20:35:30.800Z,0.00
2023-05-20T20:40:19.610Z,0.00
2023-05-20T20:45:25.269Z,0.00
2023-05-20T20:50:32.128Z,0.00
2023-05-20T20:55:20.340Z,0.00
2023-05-20T21:00:28.299Z,0.00
2023-05-20T21:05:31.764Z,0.00
2023-05-20T21:10:21.256Z,0.00
2023-05-20T21:15:27.480Z,0.00
2023-05-20T21:20:33.853Z,0.00
2023-05-20T21:25:22.417Z,0.00
2023-05-20T21:30:28.949Z,0.00
2023-05-20T21:35:17.553Z,0.00
2023-05-20T21:40:24.935Z,0.00
2023-05-20T21:45:31.333Z,0.00
2023-05-20T21:50:19.366Z,0.00
2023-05-20T21:55:24.770Z,0.00
2023-05-20T22:00:35.166Z,0.00
2023-05-20T22:05:19.260Z,0.00
2023-05-20T22:10:25.885Z,0.00
2023-05-20T22:15:31.457Z,0.00
2023-05-20T22:20:21.740Z,0.00
2023-05-20T22:25:25.801Z,0.00
2023-05-20T22:30:32.338Z,0.00
2023-05-20T22:35:20.904Z,0.00
2023-05-20T22:40:27.184Z,0.00
2023-05-20T22:45:33.169Z,0.00
2023-05-20T22:50:22.516Z,0.00
2023-05-20T22:55:28.130Z,0.00
2023-05-20T23:00:17.714Z,0.00
2023-05-20T23:05:22.696Z,0.00
2023-05-20T23:10:29.182Z,0.00
2023-05-20T23:15:17.754Z,0.00
2023-05-20T23:20:25.215Z,0.00
2023-05-20T23:25:30.425Z,0.00
2023-05-20T23:30:19.913Z,0.00
2023-05-20T23:35:25.539Z,0.00
2023-05-20T23:40:31.660Z,0.00
2023-05-20T23:45:20.636Z,0.00
2023-05-20T23:50:27.164Z,0.00
2023-05-20T23:55:32.748Z,0.00
